Time;durP1;ratioP1;P1;durP2;ratioP2;P2;SDS_P1;SDS_P2;PMS_P1;PMS_P2;Temp;Humidity;BMP_temperature;BMP_pressure;BME280_temperature;BME280_humidity;BME280_pressure;Samples;Min_cycle;Max_cycle;Signal;HPM_P1;HPM_P2
2023/05/23 00:01:17;;;;;;;5.80;5.40;;;;;;;14.52;69.45;100300.55;110506;1237;138872;-79
2023/05/23 00:03:44;;;;;;;6.50;5.70;;;;;;;14.48;69.60;100297.80;110185;1237;22562;-81
2023/05/23 00:06:10;;;;;;;7.90;5.10;;;;;;;14.46;70.11;100294.69;109757;1237;138879;-80
2023/05/23 00:08:40;;;;;;;6.50;5.50;;;;;;;14.44;70.45;100295.15;109494;1248;139110;-79
2023/05/23 00:11:06;;;;;;;7.40;6.10;;;;;;;14.40;71.18;100293.52;110457;1233;22505;-81
2023/05/23 00:13:33;;;;;;;6.80;5.70;;;;;;;14.36;71.25;100287.73;109605;1240;138234;-78
2023/05/23 00:16:01;;;;;;;10.70;5.50;;;;;;;14.33;71.22;100287.24;109553;1242;26470;-80
2023/05/23 00:18:29;;;;;;;7.80;5.30;;;;;;;14.33;71.17;100283.66;110447;1244;24225;-79
2023/05/23 00:20:56;;;;;;;5.20;4.70;;;;;;;14.35;71.52;100282.00;109758;1240;139189;-79
2023/05/23 00:23:24;;;;;;;7.20;5.20;;;;;;;14.35;71.53;100281.59;110380;1240;25378;-80
2023/05/23 00:25:54;;;;;;;5.60;5.10;;;;;;;14.32;72.02;100277.67;109815;1237;137932;-79
2023/05/23 00:28:21;;;;;;;7.60;5.50;;;;;;;14.28;72.12;100273.41;109730;1237;138998;-83
2023/05/23 00:30:48;;;;;;;8.10;5.00;;;;;;;14.26;72.42;100271.77;110080;1238;23963;-81
2023/05/23 00:33:16;;;;;;;5.60;5.10;;;;;;;14.22;72.69;100273.61;112266;1244;22672;-83
2023/05/23 00:35:43;;;;;;;5.50;4.90;;;;;;;14.15;73.14;100270.46;110147;1247;22514;-80
2023/05/23 00:38:10;;;;;;;8.60;5.00;;;;;;;14.08;73.59;100269.39;110054;1237;137493;-80
2023/05/23 00:40:37;;;;;;;5.20;4.80;;;;;;;14.05;73.78;100269.80;109898;1240;137827;-84
2023/05/23 00:43:04;;;;;;;6.20;5.60;;;;;;;14.05;73.84;100270.81;110062;1246;24216;-81
2023/05/23 00:45:30;;;;;;;10.90;4.60;;;;;;;14.05;73.96;100268.82;110408;1247;138006;-83
2023/05/23 00:47:58;;;;;;;4.80;4.40;;;;;;;14.00;74.79;100267.65;109836;1237;22511;-82
2023/05/23 00:50:28;;;;;;;6.00;5.30;;;;;;;14.01;75.22;100267.52;109933;1247;138886;-82
2023/05/23 00:52:57;;;;;;;5.50;5.00;;;;;;;14.05;75.13;100263.30;109719;1242;138446;-79
2023/05/23 00:56:08;;;;;;;5.50;4.60;;;;;;;14.04;75.32;100261.56;112083;1237;23353;31
2023/05/23 00:58:35;;;;;;;6.80;4.40;;;;;;;14.00;75.73;100259.66;109943;1240;22624;-77
2023/05/23 01:05:07;;;;;;;4.60;4.20;;;;;;;13.88;76.39;100257.72;113252;1237;22714;31
2023/05/23 01:07:34;;;;;;;4.80;4.10;;;;;;;13.81;76.83;100254.36;109862;1237;22625;-76
2023/05/23 01:10:03;;;;;;;4.80;4.10;;;;;;;13.79;76.79;100253.59;111125;1245;139561;-69
2023/05/23 01:12:53;;;;;;;4.60;4.20;;;;;;;13.81;76.76;100252.47;109453;1238;140500;-77
2023/05/23 01:15:26;;;;;;;5.90;3.60;;;;;;;13.84;76.62;100254.20;110086;1247;24106;-75
2023/05/23 01:18:07;;;;;;;4.90;4.00;;;;;;;13.86;76.60;100254.11;109541;1239;138961;-70
2023/05/23 01:20:40;;;;;;;4.70;3.80;;;;;;;13.81;76.86;100257.66;109996;1238;138344;-78
2023/05/23 01:23:46;;;;;;;4.80;4.30;;;;;;;13.76;76.98;100257.23;109809;1241;25321;-72
2023/05/23 01:26:39;;;;;;;4.90;3.60;;;;;;;13.71;77.13;100256.16;109835;1249;139069;-69
2023/05/23 01:29:13;;;;;;;5.60;3.90;;;;;;;13.67;77.20;100255.11;110336;1239;139181;-84
2023/05/23 01:31:47;;;;;;;5.00;4.60;;;;;;;13.63;77.39;100251.83;110940;1239;25416;-73
2023/05/23 01:34:15;;;;;;;4.00;3.50;;;;;;;13.59;77.38;100253.44;109592;1237;140449;-79
2023/05/23 01:40:22;;;;;;;3.50;3.30;;;;;;;13.64;77.91;100256.03;113118;1237;139054;-79
2023/05/23 01:42:50;;;;;;;3.40;3.10;;;;;;;13.65;78.10;100252.48;112934;1239;22446;-75
2023/05/23 02:00:40;;;;;;;3.20;2.90;;;;;;;13.48;78.93;100247.29;112852;1249;139731;-76
2023/05/23 02:08:37;;;;;;;3.70;3.10;;;;;;;13.59;79.17;100247.71;98211;1333;138953;-76
2023/05/23 02:11:07;;;;;;;4.00;3.50;;;;;;;13.57;79.46;100250.08;106923;1298;23061;-75
2023/05/23 02:21:23;;;;;;;3.70;3.30;;;;;;;13.56;80.01;100240.63;84313;1310;23500;31
2023/05/23 02:27:12;;;;;;;2.40;2.20;;;;;;;13.71;80.21;100230.73;103690;1312;552036;-74
2023/05/23 02:29:40;;;;;;;3.60;2.80;;;;;;;13.78;80.04;100225.81;108221;1280;22570;-78
2023/05/23 02:32:07;;;;;;;3.20;2.90;;;;;;;13.84;80.10;100227.73;107206;1275;139452;-73
2023/05/23 02:34:34;;;;;;;4.10;3.20;;;;;;;13.87;80.01;100229.90;106146;1284;25342;-74
2023/05/23 02:37:01;;;;;;;3.70;3.00;;;;;;;13.85;80.16;100230.45;107122;1271;137815;-72
2023/05/23 02:39:27;;;;;;;6.60;3.70;;;;;;;13.87;80.40;100230.35;108396;1270;189064;-71
2023/05/23 02:41:54;;;;;;;3.30;2.80;;;;;;;13.90;80.27;100229.68;106414;1276;138600;-70
2023/05/23 02:44:21;;;;;;;4.40;3.40;;;;;;;13.93;80.19;100230.56;106459;1267;138583;-73
2023/05/23 02:46:47;;;;;;;4.30;2.50;;;;;;;13.95;79.81;100228.55;106955;1272;25340;-73
2023/05/23 02:49:14;;;;;;;3.20;2.50;;;;;;;14.06;79.69;100225.77;107757;1262;137645;-76
2023/05/23 03:03:12;;;;;;;4.30;1.80;;;;;;;16.74;69.60;100223.94;89278;1283;22565;-79
2023/05/23 03:09:20;;;;;;;3.10;1.80;;;;;;;17.96;60.61;100221.30;105850;1282;137787;-76
2023/05/23 03:12:45;;;;;;;2.90;1.50;;;;;;;18.25;57.87;100217.29;108472;1270;23374;31
2023/05/23 03:18:57;;;;;;;2.30;1.90;;;;;;;18.99;55.67;100211.95;100436;1286;25453;-82
2023/05/23 03:21:24;;;;;;;2.00;1.70;;;;;;;19.25;54.00;100210.17;107741;1281;24073;-82
2023/05/23 03:23:52;;;;;;;2.60;1.40;;;;;;;19.53;52.76;100211.20;105015;1289;22905;-84
2023/05/23 03:26:20;;;;;;;1.80;1.70;;;;;;;19.78;51.35;100213.10;106205;1281;137818;-82
2023/05/23 03:28:48;;;;;;;2.20;2.10;;;;;;;20.00;50.02;100214.80;105175;1283;139203;-83
2023/05/23 03:31:18;;;;;;;2.40;2.20;;;;;;;20.10;49.15;100214.20;105479;1276;22559;-85
2023/05/23 03:33:44;;;;;;;3.00;1.40;;;;;;;20.19;49.15;100210.79;104962;1290;137210;-81
2023/05/23 03:36:11;;;;;;;5.20;1.60;;;;;;;20.33;48.52;100213.36;105044;1286;137777;-80
2023/05/23 03:38:38;;;;;;;3.70;1.70;;;;;;;20.52;48.50;100216.90;105303;1288;24217;-82
2023/05/23 03:41:05;;;;;;;1.40;1.10;;;;;;;20.88;47.71;100215.63;107999;1275;23371;-82
2023/05/23 03:47:41;;;;;;;1.70;1.50;;;;;;;21.53;45.84;100218.21;85941;1279;23404;31
2023/05/23 03:50:09;;;;;;;2.70;1.60;;;;;;;21.66;44.90;100216.16;107064;1289;138138;-82
2023/05/23 03:52:36;;;;;;;1.80;1.10;;;;;;;21.74;44.38;100211.74;107045;1290;141225;-83
2023/05/23 03:55:25;;;;;;;4.90;1.40;;;;;;;21.85;44.35;100211.95;108319;1281;22379;31
2023/05/23 03:57:52;;;;;;;3.10;1.60;;;;;;;22.15;44.51;100206.11;105011;1282;137213;-69
2023/05/23 04:00:19;;;;;;;6.50;1.80;;;;;;;22.45;44.49;100205.54;105081;1294;139811;-70
2023/05/23 04:02:50;;;;;;;3.30;1.70;;;;;;;22.79;43.41;100208.96;105800;1289;23445;-71
2023/05/23 04:05:20;;;;;;;2.40;1.20;;;;;;;23.09;42.05;100210.25;105232;1292;137954;-69
2023/05/23 04:07:48;;;;;;;1.60;1.50;;;;;;;23.11;41.35;100209.49;105569;1289;22546;-71
2023/05/23 04:10:15;;;;;;;2.40;1.60;;;;;;;23.11;40.92;100207.16;104347;1292;138790;-69
2023/05/23 04:12:43;;;;;;;1.60;1.50;;;;;;;23.21;40.38;100207.83;104412;1293;139049;-78
2023/05/23 04:15:14;;;;;;;2.90;1.40;;;;;;;23.31;40.10;100216.25;105667;1292;25489;-69
2023/05/23 04:17:53;;;;;;;2.90;1.30;;;;;;;23.34;39.88;100199.76;104377;1286;137150;-72
2023/05/23 04:20:20;;;;;;;4.20;1.40;;;;;;;23.57;39.59;100208.66;105161;1291;139180;-71
2023/05/23 04:22:47;;;;;;;2.00;1.50;;;;;;;23.71;39.67;100208.80;105374;1286;24279;-77
2023/05/23 04:25:13;;;;;;;2.80;1.70;;;;;;;23.79;39.16;100207.15;105174;1293;137325;-72
2023/05/23 04:27:47;;;;;;;4.10;2.20;;;;;;;23.65;39.11;100194.73;105278;1292;25307;-79
2023/05/23 04:30:16;;;;;;;3.30;2.20;;;;;;;23.67;39.11;100205.35;105846;1289;137964;-74
2023/05/23 04:32:43;;;;;;;4.70;2.70;;;;;;;23.52;39.19;100205.89;105459;1285;137802;-73
2023/05/23 04:35:10;;;;;;;3.70;1.60;;;;;;;23.40;39.80;100204.90;105555;1289;23365;-83
2023/05/23 04:37:41;;;;;;;3.60;2.50;;;;;;;23.41;39.74;100208.33;105868;1295;139437;-72
2023/05/23 04:40:08;;;;;;;3.80;2.50;;;;;;;23.45;39.73;100212.39;105794;1288;137751;-73
2023/05/23 04:42:45;;;;;;;7.40;2.30;;;;;;;23.56;39.53;100212.30;105923;1272;22854;-69
2023/05/23 04:45:37;;;;;;;2.50;2.00;;;;;;;23.25;39.69;100214.46;104887;1286;138893;-77
2023/05/23 04:48:22;;;;;;;7.20;2.50;;;;;;;22.50;40.82;100218.65;105525;1289;139712;-73
2023/05/23 04:50:51;;;;;;;4.40;2.40;;;;;;;21.61;42.76;100220.39;104410;1289;22563;-71
2023/05/23 04:53:18;;;;;;;3.20;2.30;;;;;;;21.01;44.59;100221.79;104350;1286;138719;-69
2023/05/23 04:55:45;;;;;;;3.20;1.80;;;;;;;20.65;45.75;100223.73;104430;1292;24209;-71
2023/05/23 04:58:14;;;;;;;3.50;2.90;;;;;;;20.42;46.56;100221.61;104368;1289;138049;-75
2023/05/23 05:00:41;;;;;;;3.00;2.30;;;;;;;20.22;47.45;100220.83;104285;1281;139007;-71
2023/05/23 05:03:09;;;;;;;6.10;2.80;;;;;;;19.96;48.84;100205.39;104473;1286;26874;-77
2023/05/23 05:05:38;;;;;;;2.40;2.20;;;;;;;19.91;49.55;100220.39;105367;1286;137619;-73
2023/05/23 05:08:05;;;;;;;3.10;2.80;;;;;;;19.98;49.93;100217.16;105160;1289;137951;-72
2023/05/23 05:10:31;;;;;;;2.70;2.50;;;;;;;20.45;49.56;100219.27;105257;1287;24180;-72
2023/05/23 05:12:58;;;;;;;3.70;3.10;;;;;;;21.07;47.17;100220.54;105395;1285;139460;-73
2023/05/23 05:15:32;;;;;;;3.00;2.70;;;;;;;21.52;45.30;100222.55;105520;1285;22654;-75
2023/05/23 05:17:59;;;;;;;4.50;3.20;;;;;;;21.65;44.94;100222.35;105536;1290;137730;-84
2023/05/23 05:20:25;;;;;;;8.60;2.40;;;;;;;21.68;44.72;100226.43;105363;1292;140742;-75
2023/05/23 05:22:57;;;;;;;5.60;2.90;;;;;;;21.74;44.76;100226.57;105552;1289;24070;-71
2023/05/23 05:25:24;;;;;;;2.70;2.10;;;;;;;21.71;44.76;100228.45;105378;1289;137672;-77
2023/05/23 05:27:51;;;;;;;6.00;2.90;;;;;;;21.70;45.18;100233.33;105584;1282;23308;-76
2023/05/23 05:30:19;;;;;;;3.30;2.90;;;;;;;21.69;45.03;100234.45;105601;1292;137598;-77
2023/05/23 05:32:57;;;;;;;4.10;2.60;;;;;;;21.72;44.94;100232.52;105795;1292;138103;-82
2023/05/23 05:35:25;;;;;;;3.20;2.40;;;;;;;21.84;44.89;100227.03;105604;1293;22697;-79
2023/05/23 05:37:51;;;;;;;5.40;2.20;;;;;;;21.94;44.82;100221.52;105765;1286;137878;-78
2023/05/23 05:40:19;;;;;;;4.00;2.20;;;;;;;22.02;44.96;100221.88;105593;1285;138939;-80
2023/05/23 05:42:45;;;;;;;2.60;2.40;;;;;;;22.02;44.90;100205.77;105607;1282;25351;-71
2023/05/23 05:45:12;;;;;;;4.30;3.20;;;;;;;22.22;44.88;100216.17;105311;1293;137159;-72
2023/05/23 05:47:40;;;;;;;7.80;3.40;;;;;;;22.47;45.16;100214.55;105182;1291;25479;-71
2023/05/23 05:50:09;;;;;;;3.40;2.20;;;;;;;22.90;44.16;100214.76;105135;1279;138133;-70
2023/05/23 05:52:38;;;;;;;4.60;2.50;;;;;;;23.29;43.22;100212.48;104920;1288;137576;-72
2023/05/23 05:55:10;;;;;;;3.90;3.10;;;;;;;23.54;42.57;100208.50;105391;1292;22813;-70
2023/05/23 05:57:38;;;;;;;3.10;2.90;;;;;;;23.54;42.44;100208.71;105070;1289;140347;-71
2023/05/23 06:00:13;;;;;;;6.00;3.10;;;;;;;23.49;42.43;100211.66;105219;1292;138812;-69
2023/05/23 06:02:46;;;;;;;3.00;2.70;;;;;;;23.35;42.85;100210.36;105434;1288;22556;-73
2023/05/23 06:05:16;;;;;;;3.00;2.40;;;;;;;23.42;42.55;100213.21;105446;1288;138222;-77
2023/05/23 06:07:47;;;;;;;4.90;3.10;;;;;;;23.63;42.36;100216.08;105107;1290;25421;-72
2023/05/23 06:10:14;;;;;;;4.20;1.70;;;;;;;23.88;41.70;100211.46;105536;1291;138079;-78
2023/05/23 06:12:41;;;;;;;3.40;2.30;;;;;;;24.00;41.55;100208.14;105229;1292;138391;-75
2023/05/23 06:15:09;;;;;;;2.70;2.40;;;;;;;23.90;41.60;100206.95;106008;1288;23320;-80
2023/05/23 06:17:37;;;;;;;3.40;1.70;;;;;;;23.63;42.28;100205.04;105371;1279;137788;-81
2023/05/23 06:20:04;;;;;;;1.40;1.30;;;;;;;23.32;42.41;100204.54;105435;1292;137846;-76
2023/05/23 06:22:32;;;;;;;2.20;1.40;;;;;;;23.13;42.76;100200.83;106688;1288;26475;-75
2023/05/23 06:24:59;;;;;;;4.80;3.10;;;;;;;23.01;43.56;100196.49;105991;1289;138387;-79
2023/05/23 06:27:26;;;;;;;2.40;2.10;;;;;;;22.79;44.28;100196.67;106672;1290;22587;-74
2023/05/23 06:29:53;;;;;;;5.70;4.00;;;;;;;22.42;45.08;100195.32;105911;1289;136801;-76
2023/05/23 06:32:21;;;;;;;4.90;2.50;;;;;;;22.11;46.41;100192.42;106039;1286;139885;-76
2023/05/23 06:34:48;;;;;;;8.60;3.40;;;;;;;21.93;46.96;100192.17;105843;1289;23931;-72
2023/05/23 06:37:15;;;;;;;8.10;3.50;;;;;;;21.80;47.73;100193.77;105027;1289;138083;-74
2023/05/23 06:39:42;;;;;;;3.40;1.80;;;;;;;21.73;48.42;100196.66;105080;1292;25425;-74
2023/05/23 06:42:08;;;;;;;2.10;1.90;;;;;;;21.64;47.87;100196.63;105089;1293;138738;-70
2023/05/23 06:44:50;;;;;;;4.90;2.30;;;;;;;21.42;48.64;100180.21;104920;1292;139924;-87
2023/05/23 06:47:17;;;;;;;4.50;1.70;;;;;;;21.51;49.05;100190.82;105168;1292;27011;-78
2023/05/23 06:49:44;;;;;;;1.80;1.70;;;;;;;21.77;48.34;100188.33;105155;1286;137775;-75
2023/05/23 06:52:11;;;;;;;5.70;1.60;;;;;;;21.91;48.11;100183.00;104776;1289;138374;-70
2023/05/23 06:54:40;;;;;;;1.70;1.60;;;;;;;22.07;47.70;100177.05;105081;1292;22562;-71
2023/05/23 06:57:07;;;;;;;2.40;2.20;;;;;;;22.12;47.46;100177.88;104863;1287;140099;-71
2023/05/23 06:59:34;;;;;;;3.50;2.90;;;;;;;22.05;47.46;100177.00;104957;1291;26661;-72
2023/05/23 07:02:01;;;;;;;4.60;2.60;;;;;;;21.91;47.10;100174.58;104760;1286;138385;-72
2023/05/23 07:04:28;;;;;;;4.00;3.10;;;;;;;21.73;47.39;100166.45;105057;1288;138349;-77
2023/05/23 07:06:56;;;;;;;3.60;1.70;;;;;;;21.72;47.75;100176.80;105255;1286;23944;-67
2023/05/23 07:09:23;;;;;;;3.00;1.80;;;;;;;21.68;47.51;100179.29;105053;1291;138215;-67
2023/05/23 07:11:51;;;;;;;4.60;3.10;;;;;;;21.63;47.93;100179.27;104917;1292;25495;-68
2023/05/23 07:14:19;;;;;;;4.70;2.00;;;;;;;21.73;48.28;100173.67;105141;1289;137876;-69
2023/05/23 07:16:46;;;;;;;2.60;2.40;;;;;;;21.65;48.84;100171.85;105075;1288;138623;-76
2023/05/23 07:19:13;;;;;;;3.00;2.50;;;;;;;21.40;49.75;100168.16;104432;1291;25544;-71
2023/05/23 07:21:44;;;;;;;6.00;3.30;;;;;;;21.33;50.33;100168.33;104755;1292;138259;-73
2023/05/23 07:24:12;;;;;;;3.30;2.70;;;;;;;21.40;50.81;100160.50;104654;1282;140136;-74
2023/05/23 07:26:38;;;;;;;6.00;1.60;;;;;;;21.65;50.67;100160.30;104557;1288;22546;-74
2023/05/23 07:29:05;;;;;;;5.30;1.10;;;;;;;21.84;49.18;100157.09;104513;1291;138140;-73
2023/05/23 07:31:34;;;;;;;8.20;1.10;;;;;;;21.95;48.77;100152.67;104934;1285;25459;-72
2023/05/23 07:34:01;;;;;;;4.90;1.20;;;;;;;22.14;48.09;100156.54;104527;1291;138655;-77
2023/05/23 07:36:34;;;;;;;3.50;1.30;;;;;;;22.36;47.26;100159.03;104878;1291;139450;-73
2023/05/23 07:41:52;;;;;;;29.90;4.30;;;;;;;22.50;46.24;100146.34;103546;1295;545183;-73
2023/05/23 07:44:19;;;;;;;9.00;1.20;;;;;;;22.42;46.27;100148.02;105957;1282;137606;-72
2023/05/23 07:46:49;;;;;;;0.90;0.40;;;;;;;22.34;45.97;100149.70;105642;1282;25505;-71
2023/05/23 07:49:16;;;;;;;1.50;0.50;;;;;;;22.37;45.57;100147.08;105333;1285;138052;-73
2023/05/23 07:51:43;;;;;;;2.30;1.20;;;;;;;22.38;45.83;100135.97;105386;1276;26370;-74
2023/05/23 07:54:10;;;;;;;6.20;0.80;;;;;;;22.36;46.68;100139.66;106823;1273;190199;-74
2023/05/23 07:56:39;;;;;;;1.20;0.90;;;;;;;22.41;46.10;100133.96;106427;1273;138299;-82
2023/05/23 07:59:07;;;;;;;3.50;0.90;;;;;;;22.42;45.66;100129.94;106644;1272;139115;-73
2023/05/23 08:01:34;;;;;;;4.20;0.80;;;;;;;22.43;45.19;100136.28;106215;1272;138595;-76
2023/05/23 08:04:03;;;;;;;3.10;2.80;;;;;;;22.49;44.94;100133.19;106194;1272;138031;-80
2023/05/23 08:06:56;;;;;;;2.70;1.00;;;;;;;22.51;45.07;100135.15;106142;1275;24181;-78
2023/05/23 08:09:31;;;;;;;4.30;0.70;;;;;;;22.50;45.25;100129.71;106420;1261;138395;-77
2023/05/23 08:11:58;;;;;;;1.90;0.50;;;;;;;22.55;45.82;100127.48;106539;1274;24213;-76
2023/05/23 08:14:28;;;;;;;1.00;0.50;;;;;;;22.65;45.48;100120.35;106370;1271;138423;-78
2023/05/23 08:17:22;;;;;;;3.00;0.60;;;;;;;22.68;45.05;100115.08;105986;1266;137279;-74
2023/05/23 08:19:49;;;;;;;3.10;0.70;;;;;;;22.59;44.92;100119.32;106493;1267;25404;-80
2023/05/23 08:22:17;;;;;;;1.80;0.60;;;;;;;22.45;44.82;100122.48;106416;1267;137653;-77
2023/05/23 08:24:44;;;;;;;3.90;0.50;;;;;;;22.32;45.06;100112.45;106992;1266;137972;-84
2023/05/23 08:27:11;;;;;;;2.10;0.80;;;;;;;22.27;45.80;100107.89;106668;1265;24210;-76
2023/05/23 08:29:38;;;;;;;4.90;1.40;;;;;;;22.36;46.76;100105.55;106388;1265;137379;-81
2023/05/23 08:32:05;;;;;;;3.10;1.20;;;;;;;22.53;46.70;100107.48;106406;1259;138441;-71
2023/05/23 08:34:34;;;;;;;1.40;0.60;;;;;;;22.67;46.02;100109.26;106581;1267;22625;-70
2023/05/23 08:37:01;;;;;;;3.30;0.70;;;;;;;22.68;45.47;100098.51;106322;1263;139620;-71
2023/05/23 08:39:29;;;;;;;1.60;1.00;;;;;;;22.67;46.84;100090.25;106906;1266;26640;-73
2023/05/23 08:42:16;;;;;;;1.90;0.90;;;;;;;22.75;47.47;100088.44;106420;1269;137044;-74
2023/05/23 08:44:42;;;;;;;1.90;0.70;;;;;;;22.85;46.12;100092.81;106556;1260;138127;-70
2023/05/23 08:47:11;;;;;;;4.70;1.00;;;;;;;22.92;45.84;100092.63;106495;1267;25459;-72
2023/05/23 08:49:47;;;;;;;3.90;0.90;;;;;;;23.01;46.78;100086.84;106456;1266;137451;-71
2023/05/23 08:52:21;;;;;;;1.20;0.80;;;;;;;23.12;47.25;100083.07;106461;1262;139130;-72
2023/05/23 08:54:48;;;;;;;5.90;1.70;;;;;;;23.23;46.13;100077.06;106790;1269;24369;-72
2023/05/23 08:57:16;;;;;;;5.90;1.30;;;;;;;23.28;46.33;100068.11;106205;1270;137824;-72
2023/05/23 08:59:48;;;;;;;2.50;1.00;;;;;;;23.33;46.35;100069.88;110179;1270;24938;-69
2023/05/23 09:02:15;;;;;;;2.20;0.80;;;;;;;23.38;46.13;100073.02;106437;1264;137906;-77
2023/05/23 09:04:42;;;;;;;3.00;0.60;;;;;;;23.41;46.19;100069.73;106822;1266;139101;-79
2023/05/23 09:07:17;;;;;;;3.30;0.90;;;;;;;23.44;46.17;100072.16;106870;1265;26284;-72
2023/05/23 09:09:45;;;;;;;5.60;1.10;;;;;;;23.47;46.03;100064.85;106754;1264;138704;-75
2023/05/23 09:12:14;;;;;;;2.30;1.10;;;;;;;23.51;45.65;100064.61;107114;1267;139074;-73
2023/05/23 09:14:41;;;;;;;2.30;0.90;;;;;;;23.56;45.39;100065.30;107021;1265;22536;-75
2023/05/23 09:17:08;;;;;;;4.80;0.90;;;;;;;23.58;45.20;100068.91;106802;1264;137662;-74
2023/05/23 09:19:41;;;;;;;2.30;0.80;;;;;;;23.58;44.97;100063.59;107215;1269;25488;-76
2023/05/23 09:22:24;;;;;;;2.90;1.20;;;;;;;23.57;45.18;100056.48;107018;1266;137990;-83
2023/05/23 09:24:57;;;;;;;2.60;0.90;;;;;;;23.62;45.28;100057.14;106476;1266;139317;-72
2023/05/23 09:27:24;;;;;;;4.10;1.10;;;;;;;23.69;45.24;100058.73;107338;1269;25354;-70
2023/05/23 09:29:52;;;;;;;3.80;1.00;;;;;;;23.77;44.36;100061.69;106315;1263;138840;-79
2023/05/23 09:32:20;;;;;;;5.90;1.20;;;;;;;23.76;43.75;100058.41;106928;1266;140754;-72
2023/05/23 09:34:56;;;;;;;1.20;0.70;;;;;;;23.72;43.91;100050.44;107134;1270;22526;-72
2023/05/23 09:37:40;;;;;;;5.00;0.80;;;;;;;23.70;43.77;100048.21;106585;1271;138099;-71
2023/05/23 09:40:09;;;;;;;2.90;1.00;;;;;;;23.63;43.82;100044.61;106648;1266;138300;-72
2023/05/23 09:42:49;;;;;;;3.80;0.90;;;;;;;23.56;44.56;100044.94;106803;1266;22536;-73
2023/05/23 09:45:16;;;;;;;1.40;0.80;;;;;;;23.55;44.78;100045.44;106894;1257;137528;-70
2023/05/23 09:47:51;;;;;;;3.80;0.90;;;;;;;23.54;44.85;100042.94;106668;1273;24195;-71
2023/05/23 09:50:20;;;;;;;1.40;0.90;;;;;;;23.55;44.98;100034.95;106890;1267;137333;-72
2023/05/23 09:52:47;;;;;;;3.70;1.70;;;;;;;23.58;44.86;100033.17;106758;1267;137826;-72
2023/05/23 09:55:14;;;;;;;3.50;0.80;;;;;;;23.65;44.90;100034.54;106594;1270;22633;-71
2023/05/23 09:57:43;;;;;;;2.60;1.30;;;;;;;23.65;44.56;100024.69;105883;1270;137397;-70
2023/05/23 10:00:12;;;;;;;5.80;1.30;;;;;;;23.75;44.38;100038.21;106062;1270;137901;-72
2023/05/23 10:03:11;;;;;;;3.60;1.10;;;;;;;23.77;44.72;100037.02;106668;1270;25257;-70
2023/05/23 10:05:44;;;;;;;1.60;0.80;;;;;;;23.82;45.02;100041.21;106130;1271;138137;-71
2023/05/23 10:08:35;;;;;;;3.30;1.00;;;;;;;23.84;44.54;100046.19;105916;1269;138016;-71
2023/05/23 10:11:34;;;;;;;2.80;0.70;;;;;;;23.77;43.75;100038.98;106069;1264;24357;-73
2023/05/23 10:14:09;;;;;;;3.30;2.80;;;;;;;23.62;44.32;100035.59;106403;1266;138280;-72
2023/05/23 10:16:47;;;;;;;7.50;1.30;;;;;;;23.59;44.59;100033.50;106383;1268;138219;-68
2023/05/23 10:19:23;;;;;;;2.40;0.90;;;;;;;23.66;44.51;100035.40;106149;1270;23491;-72
2023/05/23 10:21:58;;;;;;;1.90;0.70;;;;;;;23.74;44.20;100032.08;106600;1270;137784;-68
2023/05/23 10:24:26;;;;;;;4.20;0.80;;;;;;;23.87;43.88;100025.66;105944;1271;138369;-71
2023/05/23 10:26:54;;;;;;;3.60;1.30;;;;;;;23.93;43.48;100024.61;106509;1273;23881;-70
2023/05/23 10:29:22;;;;;;;3.20;1.20;;;;;;;23.98;43.25;100021.58;106306;1268;137841;-71
2023/05/23 10:31:51;;;;;;;2.00;1.50;;;;;;;23.97;43.00;100013.80;106060;1269;25334;-72
2023/05/23 10:34:33;;;;;;;2.00;1.80;;;;;;;24.03;43.23;100024.53;106605;1271;140155;-69
2023/05/23 10:37:06;;;;;;;4.80;1.90;;;;;;;24.10;42.94;100018.38;107139;1274;137652;-69
2023/05/23 10:39:43;;;;;;;1.90;0.80;;;;;;;24.19;42.80;100017.48;106324;1268;24912;-70
2023/05/23 10:42:21;;;;;;;2.40;1.00;;;;;;;24.18;42.87;100005.77;106172;1268;137972;-72
2023/05/23 10:44:48;;;;;;;2.40;0.90;;;;;;;24.36;42.24;100019.11;106680;1271;137806;-72
2023/05/23 10:47:26;;;;;;;2.70;0.50;;;;;;;24.39;41.73;100016.52;106003;1264;22647;-70
2023/05/23 10:49:54;;;;;;;6.20;1.10;;;;;;;24.35;41.72;100019.08;106426;1270;138856;-72
2023/05/23 10:52:26;;;;;;;5.40;1.30;;;;;;;24.27;41.59;100024.41;106528;1272;137891;-71
2023/05/23 10:54:55;;;;;;;2.30;1.10;;;;;;;24.18;41.61;100022.77;106882;1273;22649;-75
2023/05/23 10:57:27;;;;;;;5.20;1.00;;;;;;;24.09;41.97;100018.00;106709;1266;137556;-71
2023/05/23 10:59:55;;;;;;;1.50;0.70;;;;;;;24.05;42.41;100017.88;106969;1265;22575;-71
2023/05/23 11:02:26;;;;;;;2.00;0.60;;;;;;;24.07;42.56;100018.17;106722;1269;138215;-77
2023/05/23 11:05:22;;;;;;;3.70;0.60;;;;;;;24.08;42.56;100003.91;106595;1271;138628;-80
2023/05/23 11:08:07;;;;;;;7.20;0.60;;;;;;;24.23;42.61;100009.15;107613;1274;22586;-77
2023/05/23 11:11:13;;;;;;;3.70;1.40;;;;;;;24.33;42.66;100001.97;106911;1274;24236;-76
2023/05/23 11:13:54;;;;;;;4.20;0.80;;;;;;;24.39;42.20;100003.38;106152;1280;139227;-78
2023/05/23 11:16:28;;;;;;;6.60;2.20;;;;;;;24.36;42.50;99998.41;106144;1278;139402;-81
2023/05/23 11:19:21;;;;;;;5.40;0.70;;;;;;;24.35;42.67;99995.27;106664;1274;22799;-80
2023/05/23 11:21:49;;;;;;;7.40;1.60;;;;;;;24.35;42.69;99992.48;106586;1270;138530;-78
2023/05/23 11:24:19;;;;;;;4.30;1.40;;;;;;;24.36;42.68;99995.85;106725;1270;137844;-78
2023/05/23 11:27:02;;;;;;;2.50;0.80;;;;;;;24.27;42.68;99987.98;106530;1272;24206;-78
2023/05/23 11:29:30;;;;;;;3.50;0.80;;;;;;;24.39;42.68;100002.52;106595;1271;137530;-78
2023/05/23 11:31:57;;;;;;;3.10;0.90;;;;;;;24.37;42.92;99988.91;106565;1262;25455;-78
2023/05/23 11:34:25;;;;;;;3.60;1.10;;;;;;;24.42;43.04;100000.40;106261;1268;137334;-81
2023/05/23 11:36:54;;;;;;;2.30;1.10;;;;;;;24.41;43.19;99991.38;106637;1270;140108;-76
2023/05/23 11:39:22;;;;;;;4.30;1.10;;;;;;;24.44;43.10;99989.33;106164;1270;25668;-80
2023/05/23 11:42:03;;;;;;;5.20;1.10;;;;;;;24.47;43.16;99998.83;106728;1271;137322;-78
2023/05/23 11:44:30;;;;;;;3.00;1.40;;;;;;;24.38;43.04;99995.61;106921;1274;137790;-79
2023/05/23 11:47:07;;;;;;;4.60;1.30;;;;;;;24.26;43.68;99986.46;106643;1271;22657;-77
2023/05/23 11:49:39;;;;;;;2.50;0.70;;;;;;;24.20;44.02;99987.52;106625;1272;137942;-78
2023/05/23 11:52:06;;;;;;;3.30;1.00;;;;;;;24.20;44.17;99988.81;106702;1267;138399;-76
2023/05/23 11:54:33;;;;;;;3.30;0.90;;;;;;;24.25;44.15;99985.11;106682;1271;22538;-72
2023/05/23 11:57:01;;;;;;;2.60;1.30;;;;;;;24.31;43.93;99980.98;105917;1273;138934;-78
2023/05/23 11:59:28;;;;;;;1.70;0.50;;;;;;;24.33;43.80;99973.82;106620;1271;24167;-75
2023/05/23 12:01:58;;;;;;;2.80;0.90;;;;;;;24.31;43.88;99972.30;106437;1274;137744;-79
2023/05/23 12:04:40;;;;;;;5.10;1.20;;;;;;;24.16;44.06;99968.52;106430;1272;137873;-77
2023/05/23 12:07:06;;;;;;;2.40;1.10;;;;;;;24.15;44.01;99968.83;106761;1271;23872;-82
2023/05/23 12:09:41;;;;;;;1.10;0.90;;;;;;;24.25;43.86;99983.42;107015;1271;143333;-82
2023/05/23 12:12:08;;;;;;;3.20;1.10;;;;;;;24.21;43.73;99981.55;106853;1271;139119;-82
2023/05/23 12:14:37;;;;;;;5.10;1.30;;;;;;;24.18;44.11;99980.08;106616;1264;23412;-83
2023/05/23 12:17:05;;;;;;;4.40;0.90;;;;;;;24.20;44.28;99977.27;107251;1275;137315;-75
2023/05/23 12:19:45;;;;;;;2.20;1.20;;;;;;;24.25;44.21;99977.01;107216;1274;22779;-82
2023/05/23 12:22:12;;;;;;;4.30;0.80;;;;;;;24.25;44.27;99976.95;106691;1271;138933;-79
2023/05/23 12:24:48;;;;;;;2.10;1.20;;;;;;;24.22;43.71;99975.79;106673;1268;138061;-78
2023/05/23 12:27:16;;;;;;;6.00;1.60;;;;;;;23.78;43.76;99917.96;106889;1274;22530;-85
2023/05/23 12:29:50;;;;;;;2.00;1.10;;;;;;;24.12;44.12;99972.83;107173;1271;137633;-77
2023/05/23 12:32:17;;;;;;;5.70;1.40;;;;;;;24.13;44.17;99973.42;107147;1275;138964;-76
2023/05/23 12:34:44;;;;;;;3.80;1.30;;;;;;;24.16;43.56;99972.15;106739;1275;22708;-83
2023/05/23 12:37:13;;;;;;;3.90;1.40;;;;;;;24.17;43.60;99961.95;106811;1275;137924;-83